createdAt,value
2023-05-09T00:02:01.309Z,2.70
2023-05-09T00:04:29.221Z,2.83
2023-05-09T00:06:56.801Z,2.57
2023-05-09T00:09:24.276Z,1.97
2023-05-09T00:11:53.052Z,2.40
2023-05-09T00:14:20.586Z,3.30
2023-05-09T00:16:48.340Z,2.70
2023-05-09T00:19:15.840Z,2.37
2023-05-09T00:21:43.359Z,2.53
2023-05-09T00:24:10.844Z,2.60
2023-05-09T00:26:38.294Z,2.60
2023-05-09T00:29:07.395Z,2.60
2023-05-09T00:31:35.103Z,2.23
2023-05-09T00:34:02.568Z,2.13
2023-05-09T00:36:30.549Z,2.20
2023-05-09T00:38:58.134Z,2.33
2023-05-09T00:41:25.877Z,2.40
2023-05-09T00:43:53.347Z,2.30
2023-05-09T00:46:22.226Z,2.27
2023-05-09T00:48:49.823Z,2.80
2023-05-09T00:51:17.837Z,2.90
2023-05-09T00:53:45.663Z,2.43
2023-05-09T00:56:13.239Z,2.80
2023-05-09T00:58:41.023Z,2.87
2023-05-09T01:01:09.033Z,2.93
2023-05-09T01:03:41.522Z,3.10
2023-05-09T01:06:17.678Z,3.00
2023-05-09T01:08:51.921Z,2.90
2023-05-09T01:11:29.711Z,2.50
2023-05-09T01:14:09.341Z,2.50
2023-05-09T01:16:42.512Z,2.70
2023-05-09T01:19:32.125Z,2.40
2023-05-09T01:22:00.959Z,2.40
2023-05-09T01:25:07.191Z,2.80
2023-05-09T01:27:45.133Z,2.27
2023-05-09T01:30:16.737Z,3.03
2023-05-09T01:32:47.560Z,2.77
2023-05-09T01:35:17.182Z,2.47
2023-05-09T01:37:50.166Z,2.90
2023-05-09T01:40:21.590Z,2.70
2023-05-09T01:42:52.424Z,2.93
2023-05-09T01:45:22.389Z,2.80
2023-05-09T01:47:51.244Z,3.23
2023-05-09T01:50:20.526Z,3.10
2023-05-09T01:52:50.774Z,3.30
2023-05-09T01:55:27.989Z,2.30
2023-05-09T01:57:56.617Z,2.87
2023-05-09T02:00:26.275Z,3.13
2023-05-09T02:02:54.407Z,3.30
2023-05-09T02:05:23.819Z,2.30
2023-05-09T02:07:52.073Z,2.90
2023-05-09T02:10:21.373Z,3.57
2023-05-09T02:12:48.910Z,3.10
2023-05-09T02:15:16.781Z,3.27
2023-05-09T02:17:46.492Z,3.60
2023-05-09T02:20:15.336Z,3.57
2023-05-09T02:22:44.366Z,3.43
2023-05-09T02:25:15.385Z,3.57
2023-05-09T02:27:45.967Z,3.60
2023-05-09T02:30:16.455Z,4.00
2023-05-09T02:32:48.003Z,2.97
2023-05-09T02:35:17.269Z,3.13
2023-05-09T02:37:45.808Z,3.67
2023-05-09T02:40:14.746Z,4.13
2023-05-09T02:42:45.581Z,3.83
2023-05-09T02:45:13.204Z,3.07
2023-05-09T02:47:41.088Z,3.77
2023-05-09T02:50:10.761Z,4.20
2023-05-09T02:52:39.160Z,3.90
2023-05-09T02:55:08.270Z,3.50
2023-05-09T02:57:39.088Z,4.20
2023-05-09T03:00:09.347Z,4.00
2023-05-09T03:02:37.358Z,3.90
2023-05-09T03:05:07.796Z,3.83
2023-05-09T03:07:38.152Z,3.97
2023-05-09T03:10:07.153Z,4.10
2023-05-09T03:12:34.722Z,3.23
2023-05-09T03:15:02.224Z,4.93
2023-05-09T03:17:30.576Z,4.60
2023-05-09T03:19:58.510Z,4.17
2023-05-09T03:22:26.690Z,5.07
2023-05-09T03:25:00.645Z,4.30
2023-05-09T03:27:28.231Z,4.60
2023-05-09T03:29:56.202Z,4.30
2023-05-09T03:32:23.802Z,3.70
2023-05-09T03:34:51.375Z,4.60
2023-05-09T03:37:18.890Z,4.00
2023-05-09T03:39:46.435Z,4.03
2023-05-09T03:42:15.639Z,4.97
2023-05-09T03:44:46.395Z,4.93
2023-05-09T03:47:14.077Z,6.10
2023-05-09T03:49:41.729Z,4.30
2023-05-09T03:52:10.834Z,4.37
2023-05-09T03:54:38.488Z,5.20
2023-05-09T03:57:07.001Z,4.67
2023-05-09T03:59:35.887Z,5.33
2023-05-09T04:02:04.557Z,4.70
2023-05-09T04:04:32.154Z,4.53
2023-05-09T04:07:00.319Z,5.50
2023-05-09T04:09:28.801Z,4.70
2023-05-09T04:11:56.464Z,4.70
2023-05-09T04:14:23.983Z,4.93
2023-05-09T04:16:53.799Z,5.13
2023-05-09T04:19:21.569Z,5.43
2023-05-09T04:21:49.668Z,5.40
2023-05-09T04:24:17.291Z,5.17
2023-05-09T04:26:47.745Z,5.80
2023-05-09T04:29:18.976Z,5.03
2023-05-09T04:31:51.692Z,5.57
2023-05-09T04:34:21.611Z,5.20
2023-05-09T04:36:54.275Z,4.70
2023-05-09T04:39:24.804Z,5.00
2023-05-09T04:42:04.404Z,5.90
2023-05-09T04:44:33.096Z,5.80
2023-05-09T04:47:01.099Z,5.77
2023-05-09T04:49:30.352Z,5.30
2023-05-09T04:51:57.897Z,6.80
2023-05-09T04:54:27.070Z,6.57
2023-05-09T04:57:03.085Z,5.90
2023-05-09T04:59:36.039Z,5.70
2023-05-09T05:02:04.134Z,5.33
2023-05-09T05:04:33.661Z,6.30
2023-05-09T05:07:01.773Z,5.37
2023-05-09T05:09:29.675Z,5.30
2023-05-09T05:12:01.818Z,5.20
2023-05-09T05:14:32.154Z,5.30
2023-05-09T05:17:00.519Z,5.77
2023-05-09T05:19:28.062Z,6.30
2023-05-09T05:21:57.685Z,5.50
2023-05-09T05:24:26.869Z,5.43
2023-05-09T05:26:55.868Z,5.40
2023-05-09T05:29:23.400Z,6.47
2023-05-09T05:31:50.957Z,7.37
2023-05-09T05:34:18.647Z,6.27
2023-05-09T05:36:47.668Z,6.77
2023-05-09T05:39:16.632Z,5.87
2023-05-09T05:41:44.134Z,5.53
2023-05-09T05:44:12.100Z,5.67
2023-05-09T05:46:39.784Z,6.93
2023-05-09T05:49:07.292Z,6.50
2023-05-09T05:51:38.438Z,6.50
2023-05-09T05:54:07.313Z,6.77
2023-05-09T05:56:37.265Z,6.87
2023-05-09T05:59:05.629Z,6.43
2023-05-09T06:01:33.654Z,6.97
2023-05-09T06:04:01.287Z,5.67
2023-05-09T06:06:32.241Z,6.13
2023-05-09T06:08:59.856Z,5.30
2023-05-09T06:11:27.321Z,5.83
2023-05-09T06:13:56.182Z,6.90
2023-05-09T06:16:24.309Z,5.40
2023-05-09T06:18:54.942Z,7.10
2023-05-09T06:21:23.372Z,6.17
2023-05-09T06:24:07.927Z,6.20
2023-05-09T06:26:38.580Z,6.63
2023-05-09T06:29:07.661Z,5.47
2023-05-09T06:31:38.164Z,6.47
2023-05-09T06:34:06.130Z,5.60
2023-05-09T06:36:33.919Z,6.23
2023-05-09T06:39:01.601Z,5.93
2023-05-09T06:41:29.136Z,6.63
2023-05-09T06:43:56.617Z,7.10
2023-05-09T06:46:25.543Z,7.30
2023-05-09T06:48:52.997Z,6.17
2023-05-09T06:51:20.728Z,4.97
2023-05-09T06:53:48.623Z,6.37
2023-05-09T06:56:18.373Z,5.33
2023-05-09T06:58:52.725Z,5.90
2023-05-09T07:01:20.231Z,5.37
2023-05-09T07:03:49.121Z,6.60
2023-05-09T07:06:16.987Z,4.90
2023-05-09T07:08:44.446Z,5.83
2023-05-09T07:11:11.933Z,6.63
2023-05-09T07:13:39.454Z,6.23
2023-05-09T07:16:07.428Z,5.87
2023-05-09T07:18:34.929Z,5.83
2023-05-09T07:21:03.864Z,5.30
2023-05-09T07:23:31.310Z,5.33
2023-05-09T07:25:59.631Z,5.53
2023-05-09T07:28:27.104Z,5.90
2023-05-09T07:30:56.453Z,5.30
2023-05-09T07:33:24.074Z,6.13
2023-05-09T07:35:52.896Z,5.60
2023-05-09T07:38:21.676Z,4.87
2023-05-09T07:40:53.147Z,6.20
2023-05-09T07:43:20.632Z,6.17
2023-05-09T07:45:48.111Z,4.70
2023-05-09T07:48:15.783Z,5.63
2023-05-09T07:50:43.411Z,4.77
2023-05-09T07:53:11.151Z,5.07
2023-05-09T07:55:39.961Z,4.40
2023-05-09T07:58:07.536Z,5.03
2023-05-09T08:00:34.983Z,5.20
2023-05-09T08:03:02.955Z,4.80
2023-05-09T08:05:30.744Z,5.20
2023-05-09T08:07:58.182Z,4.70
2023-05-09T08:10:26.712Z,4.63
2023-05-09T08:12:55.517Z,4.90
2023-05-09T08:15:23.434Z,5.40
2023-05-09T08:17:51.916Z,5.03
2023-05-09T08:20:19.596Z,5.23
2023-05-09T08:22:52.476Z,4.87
2023-05-09T08:25:20.778Z,4.80
2023-05-09T08:27:48.336Z,6.23
2023-05-09T08:30:17.471Z,4.67
2023-05-09T08:32:44.952Z,5.07
2023-05-09T08:35:13.177Z,5.43
2023-05-09T08:37:40.943Z,4.60
2023-05-09T08:40:10.058Z,4.47
2023-05-09T08:42:40.038Z,4.40
2023-05-09T08:45:10.836Z,4.40
2023-05-09T08:47:39.971Z,5.17
2023-05-09T08:50:09.616Z,4.70
2023-05-09T08:52:37.080Z,5.03
2023-05-09T08:55:06.156Z,5.00
2023-05-09T08:57:34.922Z,4.10
2023-05-09T09:00:04.677Z,4.07
2023-05-09T09:02:33.657Z,4.50
2023-05-09T09:05:02.962Z,3.93
2023-05-09T09:07:34.474Z,4.60
2023-05-09T09:10:06.016Z,4.67
2023-05-09T09:12:34.570Z,4.50
2023-05-09T09:15:05.801Z,4.50
2023-05-09T09:17:36.609Z,4.03
2023-05-09T09:20:09.977Z,3.87
2023-05-09T09:22:42.247Z,3.90
2023-05-09T09:25:10.399Z,3.67
2023-05-09T09:27:37.894Z,3.70
2023-05-09T09:30:09.332Z,4.30
2023-05-09T09:32:37.688Z,4.80
2023-05-09T09:35:07.802Z,4.23
2023-05-09T09:37:36.322Z,3.50
2023-05-09T09:40:05.011Z,3.50
2023-05-09T09:42:42.899Z,5.13
2023-05-09T09:45:12.631Z,4.10
2023-05-09T09:47:40.559Z,4.40
2023-05-09T09:50:14.960Z,4.30
2023-05-09T09:52:51.397Z,3.53
2023-05-09T09:55:19.344Z,4.20
2023-05-09T09:57:48.331Z,3.80
2023-05-09T10:00:17.968Z,4.47
2023-05-09T10:02:50.126Z,3.70
2023-05-09T10:05:23.325Z,4.47
2023-05-09T10:07:59.418Z,4.20
2023-05-09T10:10:27.737Z,4.43
2023-05-09T10:12:57.984Z,3.50
2023-05-09T10:15:27.682Z,3.80
2023-05-09T10:17:58.785Z,4.53
2023-05-09T10:20:28.832Z,4.17
2023-05-09T10:22:58.567Z,4.30
2023-05-09T10:25:33.657Z,4.30
2023-05-09T10:28:01.899Z,3.60
2023-05-09T10:30:40.131Z,4.23
2023-05-09T10:33:10.451Z,3.80
2023-05-09T10:35:55.180Z,4.87
2023-05-09T10:38:24.571Z,3.93
2023-05-09T10:40:53.616Z,3.93
2023-05-09T10:43:25.452Z,4.00
2023-05-09T10:45:53.660Z,4.10
2023-05-09T10:48:22.614Z,3.70
2023-05-09T10:50:52.438Z,3.57
2023-05-09T10:53:21.691Z,3.73
2023-05-09T10:55:51.178Z,4.07
2023-05-09T10:58:25.159Z,3.83
2023-05-09T11:00:55.285Z,3.77
2023-05-09T11:03:25.821Z,3.97
2023-05-09T11:05:56.351Z,3.50
2023-05-09T11:08:26.307Z,4.07
2023-05-09T11:10:54.538Z,3.60
2023-05-09T11:13:24.560Z,3.73
2023-05-09T11:16:05.075Z,4.30
2023-05-09T11:18:33.686Z,4.20
2023-05-09T11:21:09.186Z,4.07
2023-05-09T11:23:36.809Z,3.93
2023-05-09T11:26:07.664Z,4.10
2023-05-09T11:28:36.773Z,3.80
2023-05-09T11:31:11.638Z,5.23
2023-05-09T11:33:40.247Z,3.90
2023-05-09T11:36:20.090Z,4.50
2023-05-09T11:39:07.166Z,3.90
2023-05-09T11:41:42.210Z,4.47
2023-05-09T11:44:17.820Z,4.10
2023-05-09T11:46:45.722Z,4.40
2023-05-09T11:49:15.665Z,4.90
2023-05-09T11:51:44.897Z,6.27
2023-05-09T11:54:14.757Z,4.30
2023-05-09T11:56:42.914Z,5.10
2023-05-09T11:59:13.077Z,4.60
2023-05-09T12:01:40.724Z,4.50
2023-05-09T12:04:09.006Z,4.50
2023-05-09T12:06:37.800Z,5.20
2023-05-09T12:09:06.676Z,4.73
2023-05-09T12:11:34.934Z,4.80
2023-05-09T12:14:02.530Z,5.43
2023-05-09T12:16:30.115Z,4.97
2023-05-09T12:18:57.663Z,4.50
2023-05-09T12:21:25.194Z,4.77
2023-05-09T12:23:56.797Z,5.53
2023-05-09T12:26:25.671Z,4.93
2023-05-09T12:28:53.266Z,4.27
2023-05-09T12:31:29.158Z,5.23
2023-05-09T12:33:56.804Z,4.77
2023-05-09T12:36:24.909Z,5.00
2023-05-09T12:38:56.071Z,4.83
2023-05-09T12:43:55.917Z,4.63
2023-05-09T12:46:23.470Z,4.57
2023-05-09T12:48:51.703Z,4.57
2023-05-09T12:51:20.612Z,4.30
2023-05-09T12:53:48.448Z,4.03
2023-05-09T12:56:18.677Z,4.40
2023-05-09T12:58:52.123Z,4.57
2023-05-09T13:01:20.154Z,4.73
2023-05-09T13:03:52.256Z,4.60
2023-05-09T13:06:21.018Z,4.90
2023-05-09T13:08:58.836Z,5.13
2023-05-09T13:11:26.778Z,3.67
2023-05-09T13:13:56.527Z,4.00
2023-05-09T13:16:24.391Z,3.70
2023-05-09T13:18:51.950Z,4.43
2023-05-09T13:21:20.075Z,5.30
2023-05-09T13:23:49.939Z,4.40
2023-05-09T13:26:21.041Z,4.73
2023-05-09T13:28:48.624Z,4.50
2023-05-09T13:31:19.019Z,4.00
2023-05-09T13:33:46.890Z,5.07
2023-05-09T13:36:18.606Z,4.53
2023-05-09T13:38:46.097Z,4.90
2023-05-09T13:41:19.653Z,4.60
2023-05-09T13:43:47.567Z,4.70
2023-05-09T13:46:15.137Z,4.43
2023-05-09T13:48:44.469Z,4.93
2023-05-09T13:51:12.300Z,5.43
2023-05-09T13:53:39.938Z,4.77
2023-05-09T13:56:09.138Z,4.73
2023-05-09T13:58:36.956Z,4.67
2023-05-09T14:01:04.646Z,4.20
2023-05-09T14:03:32.673Z,4.50
2023-05-09T14:06:05.173Z,4.80
2023-05-09T14:08:33.043Z,5.23
2023-05-09T14:11:00.553Z,4.97
2023-05-09T14:13:28.235Z,4.40
2023-05-09T14:15:56.141Z,4.50
2023-05-09T14:18:23.808Z,4.70
2023-05-09T14:20:51.721Z,4.93
2023-05-09T14:23:20.521Z,4.20
2023-05-09T14:25:47.994Z,5.23
2023-05-09T14:28:15.541Z,4.20
2023-05-09T14:30:43.006Z,4.77
2023-05-09T14:33:11.157Z,4.43
2023-05-09T14:35:41.082Z,5.00
2023-05-09T14:38:09.058Z,5.07
2023-05-09T14:40:37.869Z,5.13
2023-05-09T14:43:05.782Z,5.10
2023-05-09T14:45:34.059Z,5.47
2023-05-09T14:48:07.193Z,4.90
2023-05-09T14:50:35.023Z,4.90
2023-05-09T14:53:02.565Z,4.70
2023-05-09T14:55:31.291Z,6.07
2023-05-09T14:58:00.210Z,4.73
2023-05-09T15:00:28.497Z,4.80
2023-05-09T15:02:56.636Z,5.00
2023-05-09T15:05:24.114Z,4.20
2023-05-09T15:07:51.598Z,5.97
2023-05-09T15:10:19.332Z,5.03
2023-05-09T15:12:46.967Z,4.13
2023-05-09T15:15:18.395Z,4.63
2023-05-09T15:17:46.825Z,4.40
2023-05-09T15:20:16.168Z,5.00
2023-05-09T15:22:44.022Z,4.70
2023-05-09T15:25:12.072Z,4.87
2023-05-09T15:27:39.965Z,4.73
2023-05-09T15:30:08.625Z,4.80
2023-05-09T15:32:40.703Z,4.50
2023-05-09T15:35:09.418Z,4.17
2023-05-09T15:37:37.559Z,4.40
2023-05-09T15:40:05.876Z,5.17
2023-05-09T15:42:33.402Z,4.27
2023-05-09T15:45:01.221Z,4.83
2023-05-09T15:47:28.735Z,4.27
2023-05-09T15:49:57.602Z,3.87
2023-05-09T15:52:25.116Z,3.87
2023-05-09T15:54:52.972Z,3.90
2023-05-09T15:57:20.631Z,4.40
2023-05-09T15:59:48.083Z,4.00
2023-05-09T16:02:15.619Z,4.47
2023-05-09T16:04:43.911Z,4.00
2023-05-09T16:07:12.875Z,4.43
2023-05-09T16:09:40.431Z,3.93
2023-05-09T16:12:09.310Z,4.03
2023-05-09T16:14:36.876Z,4.20
2023-05-09T16:17:04.494Z,4.03
2023-05-09T16:19:33.713Z,3.90
2023-05-09T16:22:02.768Z,4.30
2023-05-09T16:24:32.334Z,3.60
2023-05-09T16:26:59.920Z,4.30
2023-05-09T16:29:28.450Z,3.97
2023-05-09T16:31:55.950Z,3.73
2023-05-09T16:34:23.490Z,3.47
2023-05-09T16:36:52.277Z,3.50
2023-05-09T16:39:20.249Z,3.70
2023-05-09T16:41:49.056Z,3.50
2023-05-09T16:44:16.758Z,5.03
2023-05-09T16:46:44.406Z,3.90
2023-05-09T16:49:12.047Z,4.27
2023-05-09T16:51:39.540Z,4.43
2023-05-09T16:54:07.663Z,3.90
2023-05-09T16:56:35.631Z,3.50
2023-05-09T16:59:05.094Z,3.60
2023-05-09T17:01:32.652Z,2.80
2023-05-09T17:04:01.732Z,3.70
2023-05-09T17:06:29.241Z,3.17
2023-05-09T17:08:56.729Z,3.30
2023-05-09T17:11:24.650Z,3.27
2023-05-09T17:13:52.100Z,4.00
2023-05-09T17:16:20.996Z,3.40
2023-05-09T17:18:48.530Z,5.30
2023-05-09T17:21:16.632Z,3.87
2023-05-09T17:23:44.117Z,3.80
2023-05-09T17:26:11.670Z,3.40
2023-05-09T17:28:39.168Z,3.53
2023-05-09T17:31:07.291Z,3.60
2023-05-09T17:33:36.102Z,3.17
2023-05-09T17:36:03.714Z,3.10
2023-05-09T17:38:31.262Z,3.40
2023-05-09T17:40:59.235Z,3.53
2023-05-09T17:43:28.339Z,2.97
2023-05-09T17:45:55.847Z,2.90
2023-05-09T17:48:23.367Z,3.10
2023-05-09T17:50:52.649Z,3.33
2023-05-09T17:53:20.137Z,3.30
2023-05-09T17:55:47.725Z,2.90
2023-05-09T17:58:23.091Z,3.07
2023-05-09T18:00:53.460Z,2.93
2023-05-09T18:03:21.126Z,2.70
2023-05-09T18:05:48.687Z,3.30
2023-05-09T18:08:17.876Z,2.60
2023-05-09T18:10:45.393Z,3.30
2023-05-09T18:13:12.945Z,3.33
2023-05-09T18:15:41.102Z,2.70
2023-05-09T18:18:08.683Z,2.90
2023-05-09T18:20:37.676Z,2.33
2023-05-09T18:23:05.241Z,2.90
2023-05-09T18:25:34.840Z,2.80
2023-05-09T18:28:02.508Z,2.70
2023-05-09T18:30:30.316Z,3.37
2023-05-09T18:33:00.298Z,2.93
2023-05-09T18:35:27.878Z,3.27
2023-05-09T18:37:55.350Z,3.23
2023-05-09T18:40:28.485Z,2.80
2023-05-09T18:42:57.367Z,2.83
2023-05-09T18:45:24.996Z,2.40
2023-05-09T18:47:52.565Z,3.50
2023-05-09T18:50:20.114Z,3.03
2023-05-09T18:52:47.621Z,4.27
2023-05-09T18:55:15.351Z,6.80
2023-05-09T18:57:42.820Z,3.70
2023-05-09T19:00:13.539Z,3.50
2023-05-09T19:02:41.335Z,2.90
2023-05-09T19:05:10.724Z,2.83
2023-05-09T19:07:38.934Z,2.70
2023-05-09T19:10:08.253Z,2.57
2023-05-09T19:12:36.210Z,2.73
2023-05-09T19:15:05.262Z,3.33
2023-05-09T19:17:34.685Z,2.50
2023-05-09T19:20:03.008Z,2.83
2023-05-09T19:22:31.976Z,2.60
2023-05-09T19:24:59.589Z,2.50
2023-05-09T19:27:27.230Z,2.10
2023-05-09T19:29:54.766Z,3.23
2023-05-09T19:32:22.328Z,2.43
2023-05-09T19:34:51.177Z,2.47
2023-05-09T19:37:19.066Z,2.40
2023-05-09T19:39:46.481Z,2.80
2023-05-09T19:42:14.651Z,2.10
2023-05-09T19:44:42.115Z,2.50
2023-05-09T19:47:10.057Z,2.40
2023-05-09T19:49:37.697Z,2.50
2023-05-09T19:52:06.614Z,2.30
2023-05-09T19:54:34.115Z,2.40
2023-05-09T19:57:01.813Z,2.53
2023-05-09T19:59:30.286Z,2.60
2023-05-09T20:01:57.897Z,2.70
2023-05-09T20:04:31.340Z,2.60
2023-05-09T20:06:59.048Z,2.40
2023-05-09T20:09:27.945Z,1.97
2023-05-09T20:11:55.456Z,2.10
2023-05-09T20:14:23.297Z,2.00
2023-05-09T20:16:50.795Z,2.10
2023-05-09T20:19:18.273Z,2.00
2023-05-09T20:21:45.752Z,2.20
2023-05-09T20:24:13.364Z,2.47
2023-05-09T20:26:42.311Z,2.50
2023-05-09T20:29:09.887Z,2.10
2023-05-09T20:31:37.472Z,2.43
2023-05-09T20:34:05.104Z,2.30
2023-05-09T20:36:32.689Z,2.60
2023-05-09T20:39:00.505Z,2.20
2023-05-09T20:41:28.168Z,2.60
2023-05-09T20:44:03.312Z,2.27
2023-05-09T20:46:41.616Z,2.40
2023-05-09T20:49:09.199Z,2.40
2023-05-09T20:51:36.798Z,2.37
2023-05-09T20:54:05.353Z,2.10
2023-05-09T20:56:35.391Z,2.73
2023-05-09T20:59:04.611Z,2.30
2023-05-09T21:01:35.458Z,2.57
2023-05-09T21:04:03.905Z,2.33
2023-05-09T21:06:31.686Z,2.53
2023-05-09T21:08:59.168Z,2.23
2023-05-09T21:11:26.988Z,3.00
2023-05-09T21:13:54.619Z,2.53
2023-05-09T21:16:23.821Z,2.60
2023-05-09T21:18:51.380Z,2.40
2023-05-09T21:21:18.822Z,2.43
2023-05-09T21:23:46.382Z,2.13
2023-05-09T21:26:14.031Z,2.50
2023-05-09T21:28:41.538Z,3.37
2023-05-09T21:31:11.114Z,2.60
2023-05-09T21:33:40.304Z,2.80
2023-05-09T21:36:08.592Z,2.80
2023-05-09T21:38:36.054Z,3.00
2023-05-09T21:41:03.533Z,2.50
2023-05-09T21:43:31.034Z,2.37
2023-05-09T21:45:58.482Z,2.90
2023-05-09T21:48:26.037Z,3.13
2023-05-09T21:50:57.747Z,3.50
2023-05-09T21:53:25.372Z,2.60
2023-05-09T21:55:52.984Z,2.70
2023-05-09T21:58:20.561Z,2.77
2023-05-09T22:00:48.100Z,2.60
2023-05-09T22:03:15.868Z,2.83
2023-05-09T22:05:43.441Z,2.70
2023-05-09T22:08:12.341Z,3.10
2023-05-09T22:10:39.781Z,3.00
2023-05-09T22:13:07.311Z,2.40
2023-05-09T22:15:34.783Z,2.87
2023-05-09T22:18:02.780Z,2.80
2023-05-09T22:20:30.333Z,2.80
2023-05-09T22:22:57.828Z,3.00
2023-05-09T22:25:26.649Z,2.60
2023-05-09T22:28:00.765Z,2.90
2023-05-09T22:30:28.466Z,2.97
2023-05-09T22:32:55.969Z,2.87
2023-05-09T22:35:23.570Z,3.43
2023-05-09T22:37:51.038Z,2.77
2023-05-09T22:40:18.846Z,2.10
2023-05-09T22:42:47.674Z,2.70
2023-05-09T22:45:15.140Z,3.17
2023-05-09T22:47:42.642Z,2.90
2023-05-09T22:50:11.486Z,2.90
2023-05-09T22:52:39.005Z,3.60
2023-05-09T22:55:07.555Z,3.13
2023-05-09T22:57:34.984Z,3.30
2023-05-09T23:00:04.619Z,3.10
2023-05-09T23:02:32.204Z,3.07
2023-05-09T23:04:59.850Z,3.50
2023-05-09T23:07:27.321Z,3.33
2023-05-09T23:09:54.765Z,3.70
2023-05-09T23:12:22.196Z,2.70
2023-05-09T23:14:49.631Z,2.57
2023-05-09T23:17:18.434Z,3.13
2023-05-09T23:19:46.967Z,2.30
2023-05-09T23:22:14.400Z,3.30
2023-05-09T23:24:42.069Z,2.53
2023-05-09T23:27:09.553Z,2.90
2023-05-09T23:29:36.969Z,2.90
2023-05-09T23:32:04.602Z,2.50
2023-05-09T23:34:33.770Z,3.03
2023-05-09T23:37:01.415Z,2.50
2023-05-09T23:39:29.090Z,2.97
2023-05-09T23:41:56.542Z,2.57
2023-05-09T23:44:23.992Z,3.00
2023-05-09T23:46:51.616Z,3.23
2023-05-09T23:49:22.172Z,2.77
2023-05-09T23:51:50.935Z,2.90
2023-05-09T23:54:18.383Z,2.70
2023-05-09T23:56:47.650Z,3.10
2023-05-09T23:59:15.330Z,2.73
